Time;durP1;ratioP1;P1;durP2;ratioP2;P2;SDS_P1;SDS_P2;PMS_P1;PMS_P2;Temp;Humidity;BMP_temperature;BMP_pressure;BME280_temperature;BME280_humidity;BME280_pressure;Samples;Min_cycle;Max_cycle;Signal;HPM_P1;HPM_P2
2022/01/11 07:05:31;;;;;;;19.45;10.85;;;8.60;97.70;;;;;;5070124;28;20387;-48
2022/01/11 07:07:59;;;;;;;16.08;11.02;;;8.60;97.80;;;;;;5051187;28;20067;-51
2022/01/11 07:10:27;;;;;;;14.13;9.02;;;8.70;97.70;;;;;;5048813;28;20052;-50
2022/01/11 07:12:55;;;;;;;14.02;8.40;;;8.80;97.60;;;;;;5032384;28;20124;-50
2022/01/11 07:15:22;;;;;;;13.68;8.05;;;8.80;97.40;;;;;;5032300;28;20084;-48
2022/01/11 07:17:49;;;;;;;10.35;7.40;;;8.90;97.20;;;;;;5048696;28;20381;-49
2022/01/11 07:20:17;;;;;;;10.60;6.35;;;8.90;97.10;;;;;;5048619;28;20045;-51
2022/01/11 07:22:43;;;;;;;10.40;6.20;;;9.00;97.00;;;;;;5049851;28;20052;-48
2022/01/11 07:25:12;;;;;;;10.00;6.18;;;9.10;96.80;;;;;;5053387;28;20033;-52
2022/01/11 07:27:39;;;;;;;7.80;5.50;;;9.10;96.70;;;;;;5053621;28;20041;-53
2022/01/11 07:30:06;;;;;;;7.55;5.38;;;9.20;96.70;;;;;;5047847;28;20048;-51
2022/01/11 07:32:40;;;;;;;8.23;4.43;;;9.20;96.60;;;;;;5044454;28;20127;-50
2022/01/11 07:35:07;;;;;;;7.88;4.10;;;9.20;96.50;;;;;;5047925;28;20556;-49
2022/01/11 07:37:34;;;;;;;7.35;4.85;;;9.20;96.40;;;;;;5046630;28;20443;-48
2022/01/11 07:40:04;;;;;;;5.28;3.50;;;9.30;96.30;;;;;;5047697;28;20148;-46
2022/01/11 07:42:32;;;;;;;5.00;3.30;;;9.30;96.20;;;;;;5047862;28;20033;-53
2022/01/11 07:45:11;;;;;;;5.53;3.38;;;9.30;96.10;;;;;;5048001;28;20507;-49
2022/01/11 07:47:39;;;;;;;4.10;3.05;;;9.30;96.10;;;;;;5047612;28;20042;-51
2022/01/11 07:50:06;;;;;;;4.00;2.55;;;9.30;96.10;;;;;;5047621;28;20065;-51
2022/01/11 07:52:34;;;;;;;4.43;2.50;;;9.30;96.00;;;;;;5047482;28;20053;-53
2022/01/11 07:55:02;;;;;;;5.47;2.83;;;9.40;96.00;;;;;;5047634;28;20037;-52
2022/01/11 07:57:30;;;;;;;4.88;2.40;;;9.40;95.90;;;;;;5049411;28;20049;-49
2022/01/11 07:59:57;;;;;;;4.50;2.90;;;9.40;95.80;;;;;;5048660;28;20041;-52
2022/01/11 08:02:40;;;;;;;4.75;3.03;;;9.50;95.70;;;;;;5044446;28;20057;-50
2022/01/11 08:05:18;;;;;;;5.82;3.38;;;9.50;95.70;;;;;;5047182;28;20049;-50
2022/01/11 08:07:46;;;;;;;4.70;2.90;;;9.50;95.60;;;;;;5047222;28;20046;-49
2022/01/11 08:10:18;;;;;;;4.95;2.90;;;9.50;95.60;;;;;;5047221;28;20060;-51
2022/01/11 08:12:50;;;;;;;4.53;2.85;;;9.50;95.60;;;;;;5047262;28;20077;-48
2022/01/11 08:15:17;;;;;;;6.68;4.20;;;9.50;95.50;;;;;;5042767;28;20061;-50
2022/01/11 08:17:46;;;;;;;8.32;5.63;;;9.50;95.50;;;;;;5033691;28;20045;-51
2022/01/11 08:20:14;;;;;;;8.57;6.07;;;9.50;95.50;;;;;;5033652;28;20038;-50
2022/01/11 08:22:43;;;;;;;7.80;4.28;;;9.50;95.50;;;;;;5033855;28;20060;-52
2022/01/11 08:25:10;;;;;;;11.13;6.60;;;9.40;95.40;;;;;;5033737;28;20046;-50
2022/01/11 08:27:40;;;;;;;6.00;3.97;;;9.40;95.50;;;;;;5038003;28;20041;-50
2022/01/11 08:30:06;;;;;;;6.32;4.70;;;9.30;95.60;;;;;;5033077;28;20068;-50
2022/01/11 08:32:36;;;;;;;5.55;3.83;;;9.30;95.80;;;;;;5033769;28;20102;-50
2022/01/11 08:35:04;;;;;;;5.78;4.20;;;9.30;95.70;;;;;;5031865;28;20563;-48
2022/01/11 08:37:31;;;;;;;9.15;5.70;;;9.30;95.70;;;;;;5031943;28;20045;-48
2022/01/11 08:39:58;;;;;;;5.60;3.45;;;9.30;95.90;;;;;;5017364;28;20061;-47
2022/01/11 08:42:27;;;;;;;4.85;3.63;;;9.30;95.90;;;;;;5033643;28;20041;-47
2022/01/11 08:44:54;;;;;;;6.35;3.22;;;9.30;96.10;;;;;;5033422;28;20049;-50
2022/01/11 08:47:30;;;;;;;4.20;3.80;;;9.30;96.10;;;;;;5033450;28;20041;-51
2022/01/11 08:49:59;;;;;;;4.50;3.85;;;9.30;96.20;;;;;;5033842;28;20052;-50
2022/01/11 08:52:33;;;;;;;8.07;4.40;;;9.30;96.30;;;;;;5032068;28;20088;-53
2022/01/11 08:55:00;;;;;;;7.38;4.88;;;9.30;96.20;;;;;;5031127;28;20076;-49
2022/01/11 08:57:27;;;;;;;5.30;4.50;;;9.30;96.40;;;;;;5032519;28;20108;-49
2022/01/11 08:59:55;;;;;;;5.82;4.22;;;9.30;96.30;;;;;;5031323;28;20045;-48
2022/01/11 09:02:22;;;;;;;6.03;4.90;;;9.30;96.40;;;;;;5031339;28;20088;-51
2022/01/11 09:04:52;;;;;;;5.63;4.45;;;9.30;96.40;;;;;;5031879;28;20061;-48
2022/01/11 09:07:24;;;;;;;4.68;3.97;;;9.30;96.50;;;;;;5030995;28;20111;-51
2022/01/11 09:09:54;;;;;;;4.90;4.30;;;9.30;96.50;;;;;;5033766;28;20148;-50
2022/01/11 09:12:21;;;;;;;7.10;4.72;;;9.40;96.60;;;;;;5032674;28;20080;-49
2022/01/11 09:14:49;;;;;;;4.97;3.97;;;9.40;96.60;;;;;;5033526;28;20053;-51
2022/01/11 09:17:17;;;;;;;4.40;3.75;;;9.40;96.50;;;;;;5032457;28;20069;-52
2022/01/11 09:19:46;;;;;;;5.85;4.10;;;9.50;96.50;;;;;;5032368;28;20358;-47
2022/01/11 09:22:17;;;;;;;3.83;3.35;;;9.50;96.50;;;;;;5032793;28;20038;-53
2022/01/11 09:24:45;;;;;;;5.72;3.50;;;9.50;96.50;;;;;;5033834;28;20125;-49
2022/01/11 09:27:15;;;;;;;5.55;3.72;;;9.50;96.50;;;;;;5033482;28;20507;-49
2022/01/11 09:29:45;;;;;;;6.75;3.70;;;9.60;96.50;;;;;;5015997;28;20152;-49
2022/01/11 09:32:13;;;;;;;4.72;4.00;;;9.60;96.60;;;;;;5032471;28;20111;-51
2022/01/11 09:34:41;;;;;;;6.30;4.78;;;9.60;96.40;;;;;;5031285;28;20464;-52
2022/01/11 09:37:14;;;;;;;6.05;4.57;;;9.70;96.40;;;;;;5031731;28;20102;-53
2022/01/11 09:39:43;;;;;;;7.80;5.78;;;9.70;96.40;;;;;;5032030;28;20046;-51
2022/01/11 09:42:11;;;;;;;5.90;4.80;;;9.60;96.50;;;;;;5032327;28;20357;-51
2022/01/11 09:44:39;;;;;;;6.57;4.72;;;9.60;96.40;;;;;;5031891;28;20080;-49
2022/01/11 09:47:07;;;;;;;7.75;5.65;;;9.70;96.50;;;;;;5031867;28;20038;-55
2022/01/11 09:49:34;;;;;;;7.07;4.82;;;9.70;96.50;;;;;;5031834;28;20045;-48
2022/01/11 09:52:06;;;;;;;5.15;4.47;;;9.70;96.40;;;;;;5031916;28;20045;-46
2022/01/11 09:54:34;;;;;;;5.88;5.00;;;9.80;96.50;;;;;;5031788;28;20584;-51
2022/01/11 09:57:04;;;;;;;5.85;4.57;;;9.80;96.40;;;;;;5017150;28;20041;-50
2022/01/11 09:59:31;;;;;;;6.60;4.88;;;9.90;96.30;;;;;;5031820;28;20072;-49
2022/01/11 10:02:24;;;;;;;5.00;4.22;;;9.90;96.20;;;;;;5029973;28;20042;-49
2022/01/11 10:05:12;;;;;;;5.20;4.70;;;9.90;96.20;;;;;;5032763;28;20136;-53
2022/01/11 10:07:49;;;;;;;6.07;4.72;;;9.90;96.20;;;;;;5031789;28;20053;-50
2022/01/11 10:10:16;;;;;;;6.93;4.80;;;10.00;96.10;;;;;;5033151;28;20116;-49
2022/01/11 10:12:44;;;;;;;7.22;4.45;;;10.00;96.00;;;;;;5031644;28;20408;-47
2022/01/11 10:15:11;;;;;;;6.45;4.05;;;10.00;95.90;;;;;;5031545;28;20050;-54
2022/01/11 10:17:38;;;;;;;6.22;3.60;;;10.10;95.90;;;;;;5031596;28;20037;-52
2022/01/11 10:20:06;;;;;;;3.20;2.70;;;10.10;95.90;;;;;;5031536;28;20046;-49
2022/01/11 10:22:39;;;;;;;4.55;2.83;;;10.10;95.80;;;;;;5031449;28;20065;-51
2022/01/11 10:25:06;;;;;;;4.85;3.20;;;10.10;95.80;;;;;;5031507;28;20140;-52
2022/01/11 10:27:37;;;;;;;4.22;3.00;;;10.10;95.90;;;;;;5031873;28;20042;-50
2022/01/11 10:30:06;;;;;;;3.92;2.78;;;10.20;95.80;;;;;;5031290;28;20060;-53
2022/01/11 10:32:35;;;;;;;3.25;2.65;;;10.20;95.80;;;;;;5031459;28;20101;-53
2022/01/11 10:35:13;;;;;;;3.70;2.97;;;10.20;95.70;;;;;;5031276;28;20046;-50
2022/01/11 10:38:02;;;;;;;4.18;3.00;;;10.30;95.70;;;;;;5030675;28;20148;-49
2022/01/11 10:40:32;;;;;;;3.90;3.10;;;10.30;95.70;;;;;;5032486;28;20076;-52
2022/01/11 10:42:59;;;;;;;3.63;2.92;;;10.30;95.80;;;;;;5015064;28;20072;-51
2022/01/11 10:45:26;;;;;;;4.75;3.40;;;10.30;95.70;;;;;;5032356;28;20049;-49
2022/01/11 10:47:54;;;;;;;3.70;3.10;;;10.30;95.70;;;;;;5031237;28;20073;-52
2022/01/11 10:50:28;;;;;;;3.90;3.08;;;10.30;95.70;;;;;;5030855;28;20064;-53
2022/01/11 10:52:57;;;;;;;4.25;3.45;;;10.40;95.70;;;;;;5031270;28;20064;-49
2022/01/11 10:55:26;;;;;;;3.95;3.25;;;10.40;95.70;;;;;;5030916;28;20041;-50
2022/01/11 10:58:00;;;;;;;4.45;3.40;;;10.30;95.70;;;;;;5033869;28;20111;-52
2022/01/11 11:00:29;;;;;;;5.95;3.70;;;10.40;95.80;;;;;;5030262;28;20083;-49
2022/01/11 11:02:57;;;;;;;5.97;3.92;;;10.40;95.80;;;;;;5030858;28;20056;-55
2022/01/11 11:05:24;;;;;;;6.13;4.40;;;10.40;95.90;;;;;;5032008;28;20059;-49
2022/01/11 11:07:55;;;;;;;5.38;4.00;;;10.40;95.80;;;;;;5030756;28;20160;-49
2022/01/11 11:10:23;;;;;;;5.20;4.13;;;10.40;95.90;;;;;;5030598;28;20045;-53
2022/01/11 11:12:50;;;;;;;4.78;3.78;;;10.40;95.80;;;;;;5032240;28;20041;-53
2022/01/11 11:15:17;;;;;;;5.80;3.50;;;10.40;95.70;;;;;;5030604;28;20049;-55
2022/01/11 11:18:04;;;;;;;6.25;3.58;;;10.50;95.70;;;;;;5030684;28;20487;-52
2022/01/11 11:20:38;;;;;;;5.03;3.53;;;10.60;95.60;;;;;;5030881;28;20040;-56
2022/01/11 11:23:04;;;;;;;4.82;3.40;;;10.60;95.50;;;;;;5032147;28;20497;-53
2022/01/11 11:25:31;;;;;;;5.40;3.30;;;10.70;95.40;;;;;;5032154;28;20404;-52
2022/01/11 11:27:58;;;;;;;4.47;3.17;;;10.70;95.30;;;;;;5036978;28;20116;-51
2022/01/11 11:30:25;;;;;;;4.60;3.00;;;10.80;95.30;;;;;;5031863;28;20053;-51
2022/01/11 11:32:52;;;;;;;4.53;3.38;;;10.80;95.20;;;;;;5030659;28;20136;-50
2022/01/11 11:35:19;;;;;;;4.40;3.25;;;10.90;95.10;;;;;;5025661;28;20033;-52
2022/01/11 11:37:46;;;;;;;4.25;3.05;;;10.90;95.00;;;;;;5025479;28;20168;-48
2022/01/11 11:40:12;;;;;;;5.88;3.10;;;11.00;94.90;;;;;;5025487;28;20124;-56
2022/01/11 11:42:39;;;;;;;3.83;3.17;;;11.00;94.90;;;;;;5031784;28;20045;-49
2022/01/11 11:45:06;;;;;;;4.40;2.88;;;11.10;94.80;;;;;;5030711;28;20052;-50
2022/01/11 11:47:34;;;;;;;4.15;3.10;;;11.20;94.60;;;;;;5031598;28;20052;-48
2022/01/11 11:50:01;;;;;;;5.00;3.60;;;11.20;94.60;;;;;;5031578;28;20048;-51
2022/01/11 11:52:28;;;;;;;7.03;3.60;;;11.10;94.60;;;;;;5035460;28;20437;-51
2022/01/11 11:54:55;;;;;;;5.53;3.85;;;11.20;94.80;;;;;;5035394;28;20045;-50
2022/01/11 11:57:22;;;;;;;4.20;3.10;;;11.20;94.50;;;;;;5036571;28;20132;-54
2022/01/11 11:59:48;;;;;;;6.57;3.63;;;11.20;94.60;;;;;;5034282;28;20037;-49
2022/01/11 12:02:15;;;;;;;5.70;4.22;;;11.20;94.50;;;;;;5038868;28;20041;-50
2022/01/11 12:04:42;;;;;;;5.65;4.00;;;11.20;94.50;;;;;;5035173;28;20472;-49
2022/01/11 12:07:09;;;;;;;4.57;3.75;;;11.20;94.60;;;;;;5037801;28;20395;-52
2022/01/11 12:09:36;;;;;;;6.75;4.57;;;11.20;94.60;;;;;;5035089;28;20120;-51
2022/01/11 12:12:04;;;;;;;5.85;4.72;;;11.20;94.70;;;;;;5031881;28;20038;-48
2022/01/11 12:14:31;;;;;;;8.35;5.55;;;11.10;94.70;;;;;;5034550;28;20064;-53
2022/01/11 12:16:58;;;;;;;7.60;5.50;;;11.20;94.70;;;;;;5034872;28;20045;-51
2022/01/11 12:19:25;;;;;;;8.52;6.05;;;11.10;94.70;;;;;;5034999;28;20045;-51
2022/01/11 12:21:51;;;;;;;9.02;6.13;;;11.10;94.80;;;;;;5035072;28;20041;-47
2022/01/11 12:24:18;;;;;;;9.73;6.63;;;11.10;94.80;;;;;;5033968;28;20041;-51
2022/01/11 12:26:45;;;;;;;9.00;7.25;;;11.10;95.00;;;;;;5034780;28;20051;-49
2022/01/11 12:29:12;;;;;;;11.40;7.00;;;11.10;95.10;;;;;;5034863;28;20095;-49
2022/01/11 12:31:39;;;;;;;10.13;7.63;;;11.10;95.10;;;;;;5034814;28;20552;-49
2022/01/11 12:34:08;;;;;;;11.07;8.00;;;11.10;95.20;;;;;;5034947;28;20048;-52
2022/01/11 12:36:35;;;;;;;10.48;7.85;;;11.10;95.30;;;;;;5040369;28;20069;-50
2022/01/11 12:39:02;;;;;;;9.48;7.50;;;11.10;95.30;;;;;;5034692;28;20696;-51
2022/01/11 12:41:29;;;;;;;10.30;8.15;;;11.10;95.20;;;;;;5034608;28;20045;-53
2022/01/11 12:43:58;;;;;;;12.05;8.13;;;11.10;95.20;;;;;;5034914;28;20095;-52
2022/01/11 12:46:25;;;;;;;11.57;7.93;;;11.20;95.20;;;;;;5034705;28;20049;-49
2022/01/11 12:48:53;;;;;;;11.32;8.02;;;11.20;95.20;;;;;;5034641;28;20045;-52
2022/01/11 12:51:22;;;;;;;11.07;8.18;;;11.10;95.30;;;;;;5034459;28;20049;-50
2022/01/11 12:53:49;;;;;;;10.80;8.00;;;11.10;95.40;;;;;;5034524;28;20099;-48
2022/01/11 12:56:16;;;;;;;12.80;8.20;;;11.10;95.30;;;;;;5034063;28;20526;-49
2022/01/11 12:58:43;;;;;;;10.05;7.80;;;11.10;95.30;;;;;;5038536;28;20043;-52
2022/01/11 13:01:09;;;;;;;9.27;7.90;;;11.10;95.30;;;;;;5033687;28;20124;-52
2022/01/11 13:03:36;;;;;;;10.20;7.60;;;11.10;95.30;;;;;;5034420;28;20037;-50
2022/01/11 13:06:03;;;;;;;9.52;7.68;;;11.10;95.30;;;;;;5034248;28;20064;-49
2022/01/11 13:08:30;;;;;;;9.82;7.22;;;11.10;95.30;;;;;;5038934;28;20048;-48
2022/01/11 13:10:57;;;;;;;8.65;7.20;;;11.20;95.30;;;;;;5034498;28;20461;-49
2022/01/11 13:13:25;;;;;;;10.90;7.53;;;11.10;95.30;;;;;;5034903;28;20045;-50
2022/01/11 13:15:52;;;;;;;9.70;7.18;;;11.10;95.40;;;;;;5034288;28;20045;-52
2022/01/11 13:18:19;;;;;;;12.93;7.80;;;11.10;95.50;;;;;;5034045;28;20083;-50
2022/01/11 13:20:48;;;;;;;10.68;7.07;;;11.10;95.70;;;;;;5033913;28;20041;-49
2022/01/11 13:25:42;;;;;;;9.13;6.95;;;11.10;95.90;;;;;;5034294;28;20038;-50
2022/01/11 13:28:08;;;;;;;11.13;7.07;;;11.10;95.90;;;;;;5034375;28;20059;-54
2022/01/11 13:30:35;;;;;;;9.55;6.65;;;11.10;95.90;;;;;;5036034;28;20076;-48
2022/01/11 13:33:02;;;;;;;9.95;6.90;;;11.10;96.10;;;;;;5037818;28;20111;-51
2022/01/11 13:35:29;;;;;;;8.93;7.25;;;11.10;96.10;;;;;;5034012;28;20426;-49
2022/01/11 13:37:56;;;;;;;8.60;6.63;;;11.10;96.20;;;;;;5034915;28;20048;-51
2022/01/11 13:40:23;;;;;;;7.10;6.10;;;11.10;96.30;;;;;;5036574;28;20547;-51
2022/01/11 13:42:49;;;;;;;8.18;6.32;;;11.10;96.30;;;;;;5033993;28;20104;-50
2022/01/11 13:45:16;;;;;;;6.13;5.53;;;11.10;96.30;;;;;;5032910;28;20488;-50
2022/01/11 13:47:43;;;;;;;6.72;6.00;;;11.10;96.40;;;;;;5033745;28;20496;-51
2022/01/11 13:50:10;;;;;;;7.95;6.15;;;11.10;96.30;;;;;;5033992;28;20116;-52
2022/01/11 13:52:36;;;;;;;8.02;5.78;;;11.10;96.40;;;;;;5032459;28;20050;-47
2022/01/11 13:55:03;;;;;;;5.97;5.38;;;11.10;96.30;;;;;;5033677;28;20548;-49
2022/01/11 13:57:30;;;;;;;6.13;5.05;;;11.10;96.30;;;;;;5037727;28;20501;-49
2022/01/11 14:00:02;;;;;;;7.55;5.35;;;11.10;96.20;;;;;;5032294;28;20041;-54
2022/01/11 14:02:29;;;;;;;5.55;4.93;;;11.20;96.20;;;;;;5031551;28;20053;-51
2022/01/11 14:04:55;;;;;;;7.63;5.72;;;11.20;96.20;;;;;;5033820;28;20520;-51
2022/01/11 14:07:24;;;;;;;6.53;5.25;;;11.20;96.20;;;;;;5036349;28;20048;-48
2022/01/11 14:09:53;;;;;;;6.47;5.10;;;11.20;96.10;;;;;;5033133;28;20182;-52
2022/01/11 14:12:24;;;;;;;7.68;5.43;;;11.20;96.20;;;;;;5033070;28;20045;-52
2022/01/11 14:15:10;;;;;;;6.03;4.53;;;11.30;96.00;;;;;;5033029;28;20424;-50
2022/01/11 14:17:40;;;;;;;6.53;4.63;;;11.20;96.00;;;;;;5032884;28;20144;-51
2022/01/11 14:20:08;;;;;;;5.93;4.30;;;11.30;96.10;;;;;;5032892;28;20069;-53
2022/01/11 14:22:35;;;;;;;7.93;4.70;;;11.30;95.90;;;;;;5026686;28;20033;-52
2022/01/11 14:25:01;;;;;;;5.70;4.32;;;11.30;96.00;;;;;;5026339;28;20040;-52
2022/01/11 14:27:28;;;;;;;5.40;4.10;;;11.30;95.90;;;;;;5033395;28;20045;-49
2022/01/11 14:29:55;;;;;;;4.50;4.00;;;11.30;95.90;;;;;;5032760;28;20206;-53
2022/01/11 14:32:22;;;;;;;6.70;3.80;;;11.30;95.80;;;;;;5032578;28;20033;-52
2022/01/11 14:34:49;;;;;;;5.28;3.80;;;11.30;95.80;;;;;;5034358;28;20070;-49
2022/01/11 14:37:15;;;;;;;6.30;4.28;;;11.30;95.80;;;;;;5032706;28;20052;-49
2022/01/11 14:39:42;;;;;;;7.38;4.07;;;11.30;96.10;;;;;;5032534;28;20037;-50
2022/01/11 14:42:10;;;;;;;4.93;4.40;;;11.20;96.00;;;;;;5030732;28;20056;-53
2022/01/11 14:44:37;;;;;;;5.53;4.18;;;11.20;95.90;;;;;;5032414;28;20051;-52
2022/01/11 14:47:05;;;;;;;4.45;4.05;;;11.20;95.80;;;;;;5032521;28;20041;-51
2022/01/11 14:49:34;;;;;;;5.82;4.60;;;11.20;95.80;;;;;;5032486;28;20063;-48
2022/01/11 14:52:04;;;;;;;5.10;4.32;;;11.20;95.90;;;;;;5032297;28;20041;-48
2022/01/11 14:54:34;;;;;;;5.75;4.43;;;11.20;95.90;;;;;;5032388;28;20119;-49
2022/01/11 14:57:01;;;;;;;4.60;4.10;;;11.20;95.80;;;;;;5025012;28;20467;-51
2022/01/11 14:59:28;;;;;;;6.10;4.63;;;11.10;96.00;;;;;;5028821;28;20477;-52
2022/01/11 15:01:55;;;;;;;5.47;4.80;;;11.10;96.00;;;;;;5032031;28;20045;-49
2022/01/11 15:04:22;;;;;;;7.70;5.07;;;11.10;96.00;;;;;;5031068;28;20083;-50
2022/01/11 15:06:48;;;;;;;10.70;9.43;;;11.10;96.20;;;;;;5036400;28;20125;-50
2022/01/11 15:09:15;;;;;;;21.88;16.63;;;11.10;96.00;;;;;;5038217;28;20037;-51
2022/01/11 15:11:42;;;;;;;15.80;14.20;;;11.10;96.20;;;;;;5031762;28;20045;-54
2022/01/11 15:14:09;;;;;;;11.55;10.35;;;11.10;96.10;;;;;;5029064;28;20049;-53
2022/01/11 15:16:36;;;;;;;13.45;10.60;;;11.10;96.10;;;;;;5032192;28;20376;-54
2022/01/11 15:19:02;;;;;;;29.27;20.50;;;11.10;96.20;;;;;;5032027;28;20033;-53
2022/01/11 15:21:31;;;;;;;18.58;13.60;;;11.10;96.10;;;;;;5031903;28;20051;-50
2022/01/11 15:23:58;;;;;;;16.42;12.93;;;11.10;96.00;;;;;;5031520;28;20034;-48
2022/01/11 15:26:24;;;;;;;13.35;10.25;;;11.20;96.10;;;;;;5034349;28;20047;-51
2022/01/11 15:28:51;;;;;;;11.93;8.40;;;11.10;96.20;;;;;;5035642;28;20041;-46
2022/01/11 15:31:18;;;;;;;8.30;6.93;;;11.10;96.20;;;;;;5035808;28;20045;-51
2022/01/11 15:33:45;;;;;;;9.13;6.30;;;11.10;96.30;;;;;;5035939;28;20132;-54
2022/01/11 15:36:12;;;;;;;8.73;6.88;;;11.10;96.30;;;;;;5035637;28;20063;-49
2022/01/11 15:38:39;;;;;;;8.88;6.63;;;11.00;96.40;;;;;;5038011;28;20128;-48
2022/01/11 15:41:06;;;;;;;9.38;6.80;;;11.00;96.40;;;;;;5035555;28;20559;-50
2022/01/11 15:43:33;;;;;;;8.80;6.35;;;11.00;96.50;;;;;;5035908;28;20083;-47
2022/01/11 15:46:00;;;;;;;8.73;6.53;;;11.00;96.50;;;;;;5035996;28;20050;-48
2022/01/11 15:48:29;;;;;;;9.18;7.00;;;11.00;96.60;;;;;;5034931;28;20038;-52
2022/01/11 15:50:56;;;;;;;7.85;6.82;;;11.00;96.70;;;;;;5035425;28;20246;-50
2022/01/11 15:53:24;;;;;;;9.18;6.95;;;11.00;96.80;;;;;;5035363;28;20444;-50
2022/01/11 15:55:51;;;;;;;9.45;7.05;;;11.00;96.90;;;;;;5035213;28;20041;-47
2022/01/11 15:58:17;;;;;;;8.50;6.90;;;11.00;97.00;;;;;;5034672;28;20090;-50
2022/01/11 16:00:44;;;;;;;10.32;7.78;;;10.90;96.90;;;;;;5035278;28;20041;-49
2022/01/11 16:03:11;;;;;;;10.20;7.40;;;10.90;97.10;;;;;;5035092;28;20042;-50
2022/01/11 16:05:38;;;;;;;10.20;7.68;;;10.90;97.10;;;;;;5035019;28;20477;-49
2022/01/11 16:08:05;;;;;;;12.05;7.75;;;10.90;97.20;;;;;;5037414;28;20045;-51
2022/01/11 16:10:32;;;;;;;9.85;7.85;;;10.90;97.10;;;;;;5035166;28;20377;-50
2022/01/11 16:12:59;;;;;;;10.05;7.85;;;10.90;97.20;;;;;;5035007;28;20084;-51
